Time;durP1;ratioP1;P1;durP2;ratioP2;P2;SDS_P1;SDS_P2;PMS_P1;PMS_P2;Temp;Humidity;BMP_temperature;BMP_pressure;BME280_temperature;BME280_humidity;BME280_pressure;Samples;Min_cycle;Max_cycle;Signal;HPM_P1;HPM_P2
2024/03/23 00:00:26;;;;;;;13.80;9.30;;;;;;;9.09;71.49;96135.04;108344;1277;22566;-73
2024/03/23 00:03:16;;;;;;;13.10;9.30;;;;;;;9.10;70.86;96131.36;108266;1277;22693;-74
2024/03/23 00:05:47;;;;;;;15.40;9.60;;;;;;;9.12;70.70;96136.09;108295;1277;22516;-74
2024/03/23 00:08:17;;;;;;;13.30;9.90;;;;;;;9.14;70.61;96135.67;108358;1263;26469;-74
2024/03/23 00:10:48;;;;;;;12.10;9.10;;;;;;;9.15;70.49;96136.05;108333;1277;25421;-74
2024/03/23 00:13:18;;;;;;;13.50;9.80;;;;;;;9.16;70.46;96129.69;108254;1270;22586;-74
2024/03/23 00:15:49;;;;;;;10.70;8.00;;;;;;;9.16;70.55;96129.20;108310;1277;24211;-74
2024/03/23 00:18:23;;;;;;;12.40;9.00;;;;;;;9.16;70.35;96129.20;108359;1277;22516;-74
2024/03/23 00:20:55;;;;;;;12.00;8.50;;;;;;;9.18;70.33;96122.27;108332;1276;22527;-73
2024/03/23 00:23:26;;;;;;;12.40;9.00;;;;;;;9.19;70.29;96114.05;108278;1254;22555;-74
2024/03/23 00:25:57;;;;;;;12.00;9.00;;;;;;;9.18;70.32;96104.75;108294;1271;22529;-74
2024/03/23 00:28:27;;;;;;;12.30;8.90;;;;;;;9.17;70.29;96101.74;108301;1277;22526;-74
2024/03/23 00:30:58;;;;;;;14.10;9.10;;;;;;;9.17;70.34;96098.78;108315;1274;22533;-74
2024/03/23 00:33:28;;;;;;;11.70;8.50;;;;;;;9.15;70.36;96098.76;108277;1277;22545;-74
2024/03/23 00:36:01;;;;;;;11.20;8.50;;;;;;;9.14;70.27;96097.17;108329;1277;22575;-74
2024/03/23 00:38:32;;;;;;;11.60;7.50;;;;;;;9.14;70.23;96090.70;108278;1276;22538;-74
2024/03/23 00:41:02;;;;;;;11.30;7.80;;;;;;;9.16;70.10;96086.70;108289;1277;25423;-74
2024/03/23 00:43:33;;;;;;;12.30;9.00;;;;;;;9.17;70.05;96081.34;108309;1274;22543;-74
2024/03/23 00:46:05;;;;;;;11.20;8.30;;;;;;;9.18;69.90;96078.73;108313;1277;22525;-74
2024/03/23 00:48:38;;;;;;;12.80;8.10;;;;;;;9.18;69.84;96078.15;108323;1277;25670;-74
2024/03/23 00:51:09;;;;;;;12.00;7.90;;;;;;;9.19;69.77;96075.54;108240;1272;24956;-74
2024/03/23 00:53:40;;;;;;;11.30;8.20;;;;;;;9.19;69.71;96072.84;108351;1277;25376;-74
2024/03/23 00:56:10;;;;;;;11.10;8.10;;;;;;;9.18;69.62;96063.12;108306;1272;22527;-74
2024/03/23 00:58:41;;;;;;;11.00;8.00;;;;;;;9.18;69.58;96065.02;108300;1277;22623;-74
2024/03/23 01:01:14;;;;;;;11.40;8.30;;;;;;;9.19;69.49;96065.71;108286;1271;22576;-74
2024/03/23 01:03:44;;;;;;;11.30;8.30;;;;;;;9.18;69.27;96061.54;108294;1278;22538;-74
2024/03/23 01:06:15;;;;;;;10.50;8.10;;;;;;;9.19;69.16;96063.48;108310;1277;22610;-74
2024/03/23 01:08:46;;;;;;;12.30;7.50;;;;;;;9.19;69.00;96059.41;108318;1272;22522;-74
2024/03/23 01:11:16;;;;;;;9.80;6.90;;;;;;;9.18;68.94;96058.98;108265;1278;22579;-74
2024/03/23 01:13:47;;;;;;;11.50;7.70;;;;;;;9.19;68.90;96055.77;108270;1272;22516;-74
2024/03/23 01:16:19;;;;;;;10.90;7.50;;;;;;;9.19;68.74;96051.05;108315;1271;22522;-74
2024/03/23 01:18:50;;;;;;;10.20;7.40;;;;;;;9.20;68.61;96049.88;108303;1278;24256;-74
2024/03/23 01:21:20;;;;;;;10.80;7.40;;;;;;;9.20;68.60;96044.64;108256;1278;22551;-74
2024/03/23 01:23:51;;;;;;;10.60;7.70;;;;;;;9.20;68.44;96039.35;108314;1271;25254;-74
2024/03/23 01:26:22;;;;;;;10.20;7.10;;;;;;;9.20;68.40;96041.41;108286;1271;22644;-74
2024/03/23 01:28:52;;;;;;;11.10;7.50;;;;;;;9.20;68.42;96044.36;108283;1278;22528;-74
2024/03/23 01:31:23;;;;;;;11.00;7.70;;;;;;;9.19;68.32;96041.73;108232;1278;22428;-74
2024/03/23 01:33:56;;;;;;;10.20;7.30;;;;;;;9.19;68.27;96035.70;108323;1278;22529;-73
2024/03/23 01:36:26;;;;;;;8.70;6.70;;;;;;;9.20;68.32;96035.43;108296;1278;22528;-74
2024/03/23 01:38:57;;;;;;;10.40;6.70;;;;;;;9.19;68.27;96032.22;108331;1273;22529;-74
2024/03/23 01:41:28;;;;;;;9.00;6.80;;;;;;;9.18;68.19;96027.15;108244;1271;22525;-74
2024/03/23 01:44:02;;;;;;;8.90;6.70;;;;;;;9.17;68.13;96020.23;108202;1278;23347;-74
2024/03/23 01:46:35;;;;;;;8.50;6.00;;;;;;;9.17;68.14;96017.40;108337;1272;24277;-73
2024/03/23 01:49:09;;;;;;;8.40;6.10;;;;;;;9.15;68.12;96015.24;108300;1277;22528;-73
2024/03/23 01:51:40;;;;;;;9.80;6.50;;;;;;;9.13;68.17;96013.29;108240;1278;25306;-74
2024/03/23 01:54:12;;;;;;;9.70;6.30;;;;;;;9.12;68.02;96018.86;108261;1271;22524;-74
2024/03/23 01:56:42;;;;;;;8.90;6.40;;;;;;;9.12;67.95;96012.50;108316;1278;22544;-74
2024/03/23 01:59:14;;;;;;;8.80;5.70;;;;;;;9.13;68.06;96011.77;108329;1276;22523;-74
2024/03/23 02:01:44;;;;;;;9.90;6.00;;;;;;;9.10;68.00;96009.10;108255;1271;23619;-74
2024/03/23 02:04:15;;;;;;;10.00;5.70;;;;;;;9.09;68.01;96005.05;108343;1272;23507;-74
2024/03/23 02:06:45;;;;;;;8.60;6.00;;;;;;;9.09;68.05;96002.46;108266;1279;25237;-74
2024/03/23 02:09:16;;;;;;;9.60;6.90;;;;;;;9.10;67.94;96000.59;108320;1277;22587;-74
2024/03/23 02:11:46;;;;;;;8.40;6.10;;;;;;;9.14;67.88;95997.31;108247;1278;22529;-74
2024/03/23 02:14:17;;;;;;;8.20;5.50;;;;;;;9.16;67.62;95995.29;108290;1272;22543;-74
2024/03/23 02:16:48;;;;;;;9.00;5.90;;;;;;;9.20;67.22;95989.84;108312;1274;22642;-74
2024/03/23 02:19:18;;;;;;;9.80;6.80;;;;;;;9.24;66.86;95987.92;108319;1271;22544;-74
2024/03/23 02:21:49;;;;;;;9.60;6.20;;;;;;;9.30;66.36;95986.23;108289;1272;24217;-74
2024/03/23 02:24:19;;;;;;;8.70;5.70;;;;;;;9.32;66.22;95983.28;108298;1278;25248;-74
2024/03/23 02:26:50;;;;;;;9.60;6.50;;;;;;;9.35;65.65;95978.27;108293;1272;23183;-74
2024/03/23 02:29:21;;;;;;;8.90;5.60;;;;;;;9.38;65.30;95977.42;108311;1274;22616;-74
2024/03/23 02:31:51;;;;;;;9.80;6.10;;;;;;;9.41;64.90;95971.63;108300;1277;22535;-74
2024/03/23 02:34:22;;;;;;;10.50;7.00;;;;;;;9.44;64.78;95968.05;108348;1278;22533;-74
2024/03/23 02:36:52;;;;;;;8.50;6.20;;;;;;;9.44;64.54;95971.77;108290;1276;24164;-74
2024/03/23 02:39:23;;;;;;;9.50;6.60;;;;;;;9.44;64.24;95964.45;108337;1271;22548;-74
2024/03/23 02:41:54;;;;;;;9.10;6.50;;;;;;;9.42;64.50;95962.23;108278;1278;22556;-74
2024/03/23 02:44:24;;;;;;;9.00;5.60;;;;;;;9.39;64.45;95957.63;108261;1278;25304;-74
2024/03/23 02:46:55;;;;;;;10.00;7.00;;;;;;;9.39;64.28;95957.56;108300;1277;24297;-74
2024/03/23 02:49:26;;;;;;;10.80;7.00;;;;;;;9.41;64.35;95956.95;108315;1277;22530;-74
2024/03/23 02:51:56;;;;;;;8.50;5.50;;;;;;;9.42;64.27;95952.28;108244;1278;22525;-74
2024/03/23 02:54:27;;;;;;;8.80;5.80;;;;;;;9.46;63.63;95947.95;108307;1279;22537;-74
2024/03/23 02:56:58;;;;;;;8.40;5.90;;;;;;;9.51;63.46;95949.26;108349;1278;22528;-74
2024/03/23 02:59:28;;;;;;;9.60;6.30;;;;;;;9.50;63.66;95940.28;108235;1276;22525;-74
2024/03/23 03:01:59;;;;;;;11.10;6.70;;;;;;;9.50;63.54;95942.71;108257;1278;22580;-74
2024/03/23 03:04:30;;;;;;;8.10;5.50;;;;;;;9.50;63.50;95935.83;108306;1279;22522;-74
2024/03/23 03:07:00;;;;;;;10.40;6.60;;;;;;;9.50;63.54;95933.23;108323;1278;22549;-74
2024/03/23 03:09:31;;;;;;;8.70;5.80;;;;;;;9.50;63.53;95934.08;108307;1278;23207;-73
2024/03/23 03:12:02;;;;;;;9.90;7.00;;;;;;;9.48;63.50;95931.16;108231;1278;23722;-74
2024/03/23 03:14:33;;;;;;;8.40;5.90;;;;;;;9.48;63.55;95926.86;108294;1279;22538;-74
2024/03/23 03:17:04;;;;;;;7.90;6.00;;;;;;;9.47;63.65;95927.79;108283;1278;24216;-74
2024/03/23 03:19:34;;;;;;;8.60;5.90;;;;;;;9.46;63.65;95922.89;108334;1278;22575;-74
2024/03/23 03:22:05;;;;;;;8.20;5.30;;;;;;;9.46;63.62;95921.61;108273;1278;22552;-74
2024/03/23 03:24:36;;;;;;;9.50;6.50;;;;;;;9.43;63.68;95918.21;108298;1278;22500;-74
2024/03/23 03:27:07;;;;;;;10.30;7.00;;;;;;;9.42;63.76;95916.73;108297;1278;22527;-74
2024/03/23 03:29:38;;;;;;;9.50;6.30;;;;;;;9.40;63.80;95917.02;108299;1277;22563;-74
2024/03/23 03:32:09;;;;;;;10.60;6.00;;;;;;;9.39;63.84;95913.02;108307;1277;22754;-74
2024/03/23 03:34:40;;;;;;;8.90;6.60;;;;;;;9.37;63.95;95915.08;108286;1277;22528;-74
2024/03/23 03:37:10;;;;;;;9.10;6.50;;;;;;;9.36;64.14;95913.55;108301;1277;22541;-74
2024/03/23 03:39:41;;;;;;;8.50;5.90;;;;;;;9.35;64.16;95913.40;108297;1276;22551;-75
2024/03/23 03:42:12;;;;;;;8.90;5.80;;;;;;;9.36;64.18;95909.59;108269;1278;22539;-74
2024/03/23 03:44:43;;;;;;;8.90;5.90;;;;;;;9.35;64.27;95905.90;108287;1276;22529;-74
2024/03/23 03:47:13;;;;;;;9.60;6.70;;;;;;;9.32;64.33;95901.02;108291;1277;22525;-74
2024/03/23 03:49:44;;;;;;;9.50;6.50;;;;;;;9.30;64.55;95895.61;108310;1277;23335;-74
2024/03/23 03:52:14;;;;;;;8.50;5.80;;;;;;;9.28;64.69;95893.67;108286;1277;25255;-74
2024/03/23 03:54:44;;;;;;;8.10;5.80;;;;;;;9.27;64.83;95885.69;108319;1268;22529;-74
2024/03/23 03:57:15;;;;;;;9.40;6.30;;;;;;;9.25;64.89;95884.83;108293;1277;22518;-74
2024/03/23 03:59:45;;;;;;;8.60;5.80;;;;;;;9.25;65.03;95878.74;108272;1277;22529;-74
2024/03/23 04:02:16;;;;;;;8.90;6.10;;;;;;;9.23;65.21;95876.81;108279;1277;22519;-74
2024/03/23 04:04:47;;;;;;;8.30;5.80;;;;;;;9.22;65.24;95879.16;108293;1272;24284;-74
2024/03/23 04:07:18;;;;;;;8.30;5.60;;;;;;;9.23;65.28;95875.91;108271;1277;24247;-74
2024/03/23 04:09:49;;;;;;;7.20;4.80;;;;;;;9.22;65.49;95877.63;108303;1278;22525;-74
2024/03/23 04:12:19;;;;;;;10.30;6.70;;;;;;;9.22;65.58;95872.12;108200;1278;22537;-74
2024/03/23 04:14:50;;;;;;;10.00;6.60;;;;;;;9.22;65.63;95875.35;108294;1277;22552;-74
2024/03/23 04:17:22;;;;;;;8.80;5.80;;;;;;;9.23;65.80;95878.83;108267;1278;22539;-74
2024/03/23 04:19:54;;;;;;;8.50;6.20;;;;;;;9.25;65.85;95876.73;108316;1277;22529;-74
2024/03/23 04:22:26;;;;;;;9.60;6.90;;;;;;;9.28;65.83;95871.66;108282;1272;22656;-74
2024/03/23 04:24:57;;;;;;;9.10;6.40;;;;;;;9.30;65.90;95873.50;108284;1275;22558;-74
2024/03/23 04:27:28;;;;;;;9.70;6.50;;;;;;;9.33;65.94;95871.70;108315;1278;25296;-74
2024/03/23 04:30:00;;;;;;;9.30;6.60;;;;;;;9.36;65.83;95873.50;108349;1277;22534;-74
2024/03/23 04:32:31;;;;;;;8.90;6.90;;;;;;;9.43;65.66;95875.83;108284;1277;22532;-74
2024/03/23 04:35:02;;;;;;;9.70;7.20;;;;;;;9.46;65.76;95868.02;108308;1277;24522;-74
2024/03/23 04:37:34;;;;;;;10.10;6.40;;;;;;;9.47;65.72;95863.82;108310;1276;22532;-74
2024/03/23 04:40:07;;;;;;;10.90;6.30;;;;;;;9.47;65.71;95865.77;108266;1278;22536;-74
2024/03/23 04:42:38;;;;;;;10.40;7.50;;;;;;;9.48;65.81;95864.27;108326;1276;22615;-74
2024/03/23 04:45:10;;;;;;;11.20;7.50;;;;;;;9.55;65.79;95859.23;108265;1277;22655;-74
2024/03/23 04:47:43;;;;;;;11.50;7.40;;;;;;;9.66;65.47;95861.60;108305;1276;25012;-74
2024/03/23 04:50:15;;;;;;;10.60;6.80;;;;;;;9.71;65.40;95852.14;108287;1277;26555;-74
2024/03/23 04:52:45;;;;;;;14.00;6.90;;;;;;;9.74;65.29;95849.67;108243;1278;25250;-74
2024/03/23 04:55:17;;;;;;;11.40;7.40;;;;;;;9.79;65.19;95848.98;108306;1278;22533;-74
2024/03/23 04:57:47;;;;;;;12.30;7.90;;;;;;;9.84;65.08;95843.28;108336;1277;22570;-74
2024/03/23 05:00:19;;;;;;;9.80;6.20;;;;;;;9.88;64.84;95828.84;108291;1277;22571;-74
2024/03/23 05:02:53;;;;;;;8.30;5.90;;;;;;;9.94;64.42;95821.61;108298;1278;22542;-74
2024/03/23 05:05:23;;;;;;;11.20;7.10;;;;;;;9.99;64.18;95826.13;108310;1273;22660;-74
2024/03/23 05:07:54;;;;;;;12.50;6.20;;;;;;;10.01;64.23;95821.77;108286;1277;25388;-73
2024/03/23 05:10:24;;;;;;;9.70;6.70;;;;;;;10.03;63.89;95819.08;108321;1277;22575;-74
2024/03/23 05:12:55;;;;;;;10.10;7.10;;;;;;;10.03;64.08;95823.26;108257;1277;22539;-74
2024/03/23 05:15:26;;;;;;;12.00;7.10;;;;;;;9.99;64.33;95820.62;108267;1276;22529;-74
2024/03/23 05:17:57;;;;;;;10.60;7.50;;;;;;;9.97;64.40;95819.65;108315;1277;22530;-74
2024/03/23 05:20:28;;;;;;;10.40;6.50;;;;;;;9.94;64.42;95819.48;108324;1274;22575;-74
2024/03/23 05:22:59;;;;;;;9.70;7.20;;;;;;;9.91;64.53;95816.66;108314;1278;22548;-74
2024/03/23 05:25:29;;;;;;;10.60;6.70;;;;;;;9.88;64.59;95816.91;108302;1278;22528;-74
2024/03/23 05:28:00;;;;;;;11.70;7.90;;;;;;;9.90;64.47;95813.59;108323;1278;22536;-74
2024/03/23 05:30:31;;;;;;;11.20;7.40;;;;;;;9.90;64.68;95820.42;108291;1278;22537;-74
2024/03/23 05:33:02;;;;;;;9.50;6.30;;;;;;;9.91;64.61;95823.48;108274;1279;23986;-73
2024/03/23 05:35:32;;;;;;;10.30;7.20;;;;;;;9.91;64.76;95826.66;108299;1278;22543;-74
2024/03/23 05:38:03;;;;;;;10.00;7.20;;;;;;;9.92;64.96;95823.77;108266;1276;22532;-74
2024/03/23 05:40:37;;;;;;;10.10;6.80;;;;;;;9.94;65.06;95815.11;108284;1278;22529;-74
2024/03/23 05:43:09;;;;;;;9.60;6.90;;;;;;;9.96;65.16;95811.20;108278;1278;22550;-74
2024/03/23 05:45:55;;;;;;;11.90;6.80;;;;;;;9.96;65.30;95805.05;108300;1278;23909;-74
2024/03/23 05:48:30;;;;;;;9.50;5.90;;;;;;;9.97;65.38;95804.45;108282;1277;22667;-74
2024/03/23 05:51:00;;;;;;;9.60;6.30;;;;;;;10.02;65.50;95800.92;108289;1279;22558;-74
2024/03/23 05:53:32;;;;;;;8.70;5.40;;;;;;;10.04;65.44;95793.52;108293;1277;24224;-74
2024/03/23 05:56:06;;;;;;;9.30;6.20;;;;;;;10.13;65.24;95784.17;108303;1278;22575;-74
2024/03/23 05:58:38;;;;;;;8.70;6.20;;;;;;;10.29;65.10;95785.88;108297;1277;22564;-74
2024/03/23 06:01:10;;;;;;;7.70;6.10;;;;;;;10.33;65.04;95793.55;108306;1276;22525;-74
2024/03/23 06:03:40;;;;;;;7.80;5.90;;;;;;;10.36;65.14;95797.16;108271;1278;22670;-74
2024/03/23 06:06:12;;;;;;;9.60;6.60;;;;;;;10.34;65.15;95794.25;108151;1272;161189;-73
2024/03/23 06:08:43;;;;;;;9.30;5.80;;;;;;;10.32;65.32;95793.42;108319;1278;22644;-74
2024/03/23 06:11:13;;;;;;;9.00;6.10;;;;;;;10.30;65.46;95793.52;108281;1277;22512;-73
2024/03/23 06:13:44;;;;;;;8.70;5.90;;;;;;;10.29;65.43;95799.80;108289;1279;22565;-73
2024/03/23 06:16:15;;;;;;;10.20;7.50;;;;;;;10.30;65.48;95801.91;108315;1278;22530;-73
2024/03/23 06:18:45;;;;;;;9.10;7.40;;;;;;;10.30;65.35;95805.09;108310;1278;22546;-73
2024/03/23 06:21:17;;;;;;;8.10;5.30;;;;;;;10.31;65.20;95807.33;108283;1273;22558;-73
2024/03/23 06:23:51;;;;;;;9.20;6.30;;;;;;;10.34;64.98;95818.66;108335;1278;22544;-74
2024/03/23 06:26:22;;;;;;;10.30;7.10;;;;;;;10.34;65.17;95775.64;108347;1271;22535;-73
2024/03/23 06:28:52;;;;;;;10.50;7.00;;;;;;;10.28;65.36;95759.70;108314;1278;22558;-73
2024/03/23 06:31:23;;;;;;;8.60;5.60;;;;;;;10.21;65.72;95760.41;108240;1278;22964;-73
2024/03/23 06:33:56;;;;;;;8.40;5.40;;;;;;;10.18;65.76;95752.36;108277;1278;22562;-74
2024/03/23 06:36:26;;;;;;;6.70;5.00;;;;;;;10.25;65.48;95735.77;108293;1278;22531;-74
2024/03/23 06:38:57;;;;;;;8.60;5.90;;;;;;;10.37;64.97;95727.41;108277;1279;25420;-73
2024/03/23 06:41:28;;;;;;;10.00;6.70;;;;;;;10.46;64.81;95728.34;108267;1278;22548;-74
2024/03/23 06:43:58;;;;;;;7.70;5.40;;;;;;;10.57;64.71;95738.64;108303;1278;22541;-73
2024/03/23 06:46:29;;;;;;;7.90;4.80;;;;;;;10.65;64.55;95741.25;108277;1278;22599;-73
2024/03/23 06:48:59;;;;;;;9.40;7.20;;;;;;;10.67;64.38;95754.04;108257;1277;22648;-73
2024/03/23 06:51:30;;;;;;;10.50;6.70;;;;;;;10.68;64.53;95752.84;108253;1278;23498;-73
2024/03/23 06:54:01;;;;;;;8.20;6.10;;;;;;;10.66;64.63;95757.39;108329;1278;22583;-73
2024/03/23 06:56:31;;;;;;;10.70;7.10;;;;;;;10.69;64.69;95751.67;108282;1271;24446;-74
2024/03/23 06:59:02;;;;;;;11.00;7.20;;;;;;;10.77;64.77;95747.67;108295;1278;22645;-73
2024/03/23 07:01:33;;;;;;;9.50;6.40;;;;;;;10.89;64.64;95754.39;108269;1258;24223;-73
2024/03/23 07:04:03;;;;;;;8.40;5.30;;;;;;;11.00;64.35;95751.83;108275;1276;22512;-73
2024/03/23 07:06:34;;;;;;;9.50;6.00;;;;;;;11.07;63.80;95750.15;108282;1279;24232;-73
2024/03/23 07:09:05;;;;;;;7.30;5.00;;;;;;;11.11;63.60;95742.30;108259;1271;25253;-73
2024/03/23 07:11:36;;;;;;;8.70;5.80;;;;;;;11.15;62.90;95746.73;108218;1278;22585;-73
2024/03/23 07:14:07;;;;;;;9.10;6.10;;;;;;;11.18;63.25;95745.55;108316;1277;25450;-74
2024/03/23 07:16:41;;;;;;;9.20;6.40;;;;;;;11.19;63.14;95747.52;108275;1278;25411;-73
2024/03/23 07:19:11;;;;;;;9.20;6.00;;;;;;;11.18;63.18;95760.92;108311;1278;22662;-73
2024/03/23 07:21:42;;;;;;;8.20;6.10;;;;;;;11.18;63.31;95765.39;108252;1278;22551;-74
2024/03/23 07:24:13;;;;;;;8.40;6.20;;;;;;;11.18;63.27;95759.43;108302;1278;22531;-74
2024/03/23 07:26:44;;;;;;;9.90;6.20;;;;;;;11.21;63.42;95760.31;108296;1278;26115;-73
2024/03/23 07:29:15;;;;;;;8.40;5.60;;;;;;;11.26;63.47;95754.52;108296;1278;25355;-73
2024/03/23 07:31:45;;;;;;;7.70;5.40;;;;;;;11.32;63.43;95752.84;108232;1278;24209;-73
2024/03/23 07:34:16;;;;;;;8.90;5.80;;;;;;;11.36;63.36;95755.13;108319;1275;22539;-73
2024/03/23 07:36:47;;;;;;;7.80;5.50;;;;;;;11.38;63.48;95756.23;108271;1278;22536;-73
2024/03/23 07:39:17;;;;;;;8.90;5.90;;;;;;;11.42;63.59;95753.24;108299;1277;24103;-73
2024/03/23 07:41:48;;;;;;;8.50;6.30;;;;;;;11.47;63.65;95751.08;108264;1276;24208;-73
2024/03/23 07:44:19;;;;;;;8.60;5.80;;;;;;;11.52;63.70;95745.27;108304;1279;22570;-73
2024/03/23 07:46:50;;;;;;;7.90;5.80;;;;;;;11.62;63.82;95745.50;108284;1278;22539;-73
2024/03/23 07:49:21;;;;;;;8.70;6.00;;;;;;;11.72;63.73;95737.42;108307;1278;23401;-74
2024/03/23 07:51:51;;;;;;;8.00;5.90;;;;;;;11.82;63.66;95733.52;108274;1278;24261;-74
2024/03/23 07:54:22;;;;;;;9.20;6.30;;;;;;;11.91;63.63;95730.93;108293;1278;22529;-73
2024/03/23 07:56:53;;;;;;;8.20;6.40;;;;;;;11.97;63.58;95727.11;108299;1278;22588;-73
2024/03/23 07:59:27;;;;;;;9.90;6.40;;;;;;;12.01;63.32;95726.53;108310;1270;22700;-74
2024/03/23 08:01:58;;;;;;;9.70;6.60;;;;;;;12.08;63.12;95722.91;108283;1278;24138;-74
2024/03/23 08:04:29;;;;;;;9.20;6.80;;;;;;;12.25;63.07;95722.48;108315;1278;23176;-73
2024/03/23 08:07:02;;;;;;;8.80;6.40;;;;;;;12.32;62.67;95712.13;108261;1278;22824;-74
2024/03/23 08:09:32;;;;;;;9.00;5.80;;;;;;;12.29;62.50;95709.69;108302;1278;22541;-74
2024/03/23 08:12:03;;;;;;;8.20;6.30;;;;;;;12.23;62.21;95705.32;108254;1278;22685;-73
2024/03/23 08:14:34;;;;;;;8.60;5.60;;;;;;;12.21;62.25;95702.25;108301;1278;22567;-73
2024/03/23 08:17:05;;;;;;;8.50;6.40;;;;;;;12.21;62.21;95698.47;108273;1278;24276;-73
2024/03/23 08:19:36;;;;;;;8.30;6.00;;;;;;;12.22;62.26;95697.06;108299;1277;22533;-73
2024/03/23 08:22:06;;;;;;;10.80;6.30;;;;;;;12.27;62.26;95690.70;108296;1277;25309;-74
2024/03/23 08:24:38;;;;;;;10.20;7.00;;;;;;;12.40;62.34;95682.39;108310;1278;22537;-74
2024/03/23 08:27:09;;;;;;;9.30;6.50;;;;;;;12.56;62.09;95674.42;108292;1277;24310;-74
2024/03/23 08:29:40;;;;;;;7.70;6.00;;;;;;;12.72;61.83;95674.23;108283;1273;23042;-74
2024/03/23 08:32:12;;;;;;;8.30;6.00;;;;;;;12.94;61.63;95677.20;108270;1278;23018;-74
2024/03/23 08:34:43;;;;;;;8.30;5.30;;;;;;;12.99;61.29;95670.17;108305;1277;22572;-74
2024/03/23 08:37:13;;;;;;;8.00;5.40;;;;;;;12.98;60.99;95670.27;108312;1278;22539;-74
2024/03/23 08:39:45;;;;;;;7.80;5.60;;;;;;;12.93;61.10;95666.84;108298;1272;22525;-73
2024/03/23 08:42:19;;;;;;;9.70;6.10;;;;;;;12.93;60.69;95664.45;108288;1278;22521;-74
2024/03/23 08:44:50;;;;;;;7.90;5.50;;;;;;;12.97;60.83;95664.21;108284;1274;26207;-73
2024/03/23 08:47:20;;;;;;;9.30;6.50;;;;;;;13.09;60.87;95653.58;108392;1278;22546;-74
2024/03/23 08:49:52;;;;;;;7.40;4.50;;;;;;;13.27;60.66;95660.31;108309;1275;22696;-73
2024/03/23 08:52:23;;;;;;;7.80;5.70;;;;;;;13.51;60.55;95653.56;108277;1277;24392;-73
2024/03/23 08:54:53;;;;;;;6.70;5.40;;;;;;;14.27;60.40;95649.66;108307;1278;23406;-74
2024/03/23 08:57:26;;;;;;;7.70;5.50;;;;;;;14.83;58.67;95649.41;108288;1277;25246;-74
2024/03/23 08:59:57;;;;;;;7.20;4.70;;;;;;;14.99;57.75;95645.74;108270;1278;22737;-74
2024/03/23 09:02:28;;;;;;;7.50;5.10;;;;;;;15.27;56.90;95639.67;108264;1276;22526;-74
2024/03/23 09:05:04;;;;;;;5.00;3.80;;;;;;;15.63;56.66;95630.64;108253;1278;22567;-74
2024/03/23 09:07:34;;;;;;;6.90;4.20;;;;;;;15.86;52.64;95623.88;108293;1278;22627;-74
2024/03/23 09:10:08;;;;;;;7.60;4.70;;;;;;;16.19;54.15;95622.48;108296;1277;25342;-74
2024/03/23 09:12:41;;;;;;;5.00;4.40;;;;;;;16.64;53.70;95624.30;108269;1277;26561;-74
2024/03/23 09:15:12;;;;;;;7.60;4.90;;;;;;;16.62;52.83;95619.89;108304;1278;22709;-75
2024/03/23 09:17:43;;;;;;;9.00;4.30;;;;;;;16.47;52.96;95615.10;108319;1277;22519;-74
2024/03/23 09:20:14;;;;;;;6.70;4.60;;;;;;;16.57;53.26;95609.73;108317;1278;25332;-74
2024/03/23 09:22:45;;;;;;;6.40;4.00;;;;;;;16.54;52.46;95604.00;108315;1267;22533;-73
2024/03/23 09:25:16;;;;;;;6.70;4.20;;;;;;;16.51;52.44;95603.52;108275;1277;22526;-74
2024/03/23 09:27:48;;;;;;;5.50;3.50;;;;;;;16.53;51.60;95593.65;108314;1273;22709;-75
2024/03/23 09:30:19;;;;;;;4.50;2.80;;;;;;;16.58;51.18;95593.41;108295;1277;27579;-74
2024/03/23 09:32:50;;;;;;;6.50;3.60;;;;;;;16.42;49.54;95584.11;108303;1277;25391;-74
2024/03/23 09:35:21;;;;;;;5.30;3.30;;;;;;;16.25;50.23;95584.38;108348;1276;22550;-74
2024/03/23 09:37:52;;;;;;;4.70;3.70;;;;;;;16.05;48.20;95575.27;108277;1278;22532;-74
2024/03/23 09:40:23;;;;;;;4.70;3.00;;;;;;;15.82;48.86;95574.86;108288;1273;22525;-74
2024/03/23 09:42:55;;;;;;;4.60;3.10;;;;;;;15.93;49.52;95573.21;108259;1278;24324;-74
2024/03/23 09:45:30;;;;;;;4.70;3.10;;;;;;;16.21;49.71;95574.95;108269;1277;22662;-74
2024/03/23 09:48:00;;;;;;;4.30;3.10;;;;;;;16.09;47.68;95567.95;108322;1278;22533;-73
2024/03/23 09:50:31;;;;;;;6.30;2.90;;;;;;;16.08;47.84;95566.86;108342;1271;22549;-74
2024/03/23 09:53:02;;;;;;;4.70;2.90;;;;;;;16.13;46.93;95561.17;108230;1277;24331;-74
2024/03/23 09:55:33;;;;;;;4.40;3.00;;;;;;;15.94;45.67;95557.75;108279;1278;22529;-73
2024/03/23 09:58:04;;;;;;;7.00;4.00;;;;;;;15.79;46.86;95556.45;108270;1278;22539;-74
2024/03/23 10:00:36;;;;;;;6.50;3.70;;;;;;;15.70;45.82;95547.52;108304;1278;22527;-74
2024/03/23 10:03:08;;;;;;;3.40;2.60;;;;;;;15.89;46.72;95548.90;108303;1278;22534;-74
2024/03/23 10:05:42;;;;;;;5.90;3.60;;;;;;;16.02;45.92;95537.12;108341;1270;22561;-75
2024/03/23 10:08:22;;;;;;;5.70;3.80;;;;;;;16.15;45.61;95535.72;108305;1278;23301;-73
2024/03/23 10:10:51;;;;;;;;;;;;;;;16.18;45.55;95530.86;108258;1278;22542;-73
2024/03/23 10:13:30;;;;;;;5.70;3.40;;;;;;;16.27;45.18;95521.55;108297;1278;24157;-74
2024/03/23 10:16:01;;;;;;;6.50;4.00;;;;;;;16.26;44.28;95521.83;108275;1270;22543;-74
2024/03/23 10:18:32;;;;;;;4.50;3.10;;;;;;;16.31;45.64;95522.89;108295;1278;22575;-73
2024/03/23 10:21:13;;;;;;;4.90;3.60;;;;;;;16.42;45.18;95511.02;108235;1272;25521;-74
2024/03/23 10:23:45;;;;;;;4.90;3.20;;;;;;;16.41;45.40;95508.32;108284;1278;23755;-74
2024/03/23 10:26:18;;;;;;;5.30;3.80;;;;;;;16.36;45.05;95500.86;108304;1278;22543;-74
2024/03/23 10:28:59;;;;;;;5.40;3.50;;;;;;;16.27;45.33;95505.04;108302;1271;25250;-74
2024/03/23 10:31:31;;;;;;;3.60;2.70;;;;;;;16.27;45.41;95503.84;108295;1279;22648;-73
2024/03/23 10:34:02;;;;;;;5.20;3.10;;;;;;;16.17;44.60;95500.64;108331;1270;22560;-74
2024/03/23 10:36:35;;;;;;;4.50;3.30;;;;;;;16.11;45.56;95484.98;108258;1278;24390;-74
2024/03/23 10:39:09;;;;;;;3.70;2.80;;;;;;;16.07;45.69;95481.95;108292;1278;23194;-74
2024/03/23 10:41:41;;;;;;;4.80;3.60;;;;;;;15.94;45.76;95479.02;108304;1276;25294;-73
2024/03/23 10:44:12;;;;;;;4.90;3.20;;;;;;;15.93;46.28;95478.45;108318;1278;22529;-76
2024/03/23 10:46:45;;;;;;;4.60;3.10;;;;;;;15.94;46.29;95471.00;108294;1273;22542;-74
2024/03/23 10:49:20;;;;;;;3.70;2.90;;;;;;;15.93;46.03;95459.39;108306;1276;24287;-75
2024/03/23 10:51:53;;;;;;;5.40;2.70;;;;;;;15.91;46.07;95460.77;108274;1278;22521;-74
2024/03/23 10:54:25;;;;;;;4.90;3.60;;;;;;;15.86;45.03;95442.04;108470;1278;22543;-74
2024/03/23 10:57:02;;;;;;;5.20;3.10;;;;;;;15.87;45.78;95445.96;108433;1278;22612;-72
2024/03/23 10:59:35;;;;;;;4.90;3.30;;;;;;;16.00;45.45;95438.70;108427;1278;24286;-73
2024/03/23 11:02:08;;;;;;;4.70;3.00;;;;;;;16.19;46.29;95436.84;108418;1278;22533;-73
2024/03/23 11:04:40;;;;;;;5.10;3.10;;;;;;;16.36;45.85;95424.75;108462;1278;22529;-73
2024/03/23 11:07:32;;;;;;;7.10;3.30;;;;;;;16.37;45.40;95422.47;108429;1278;22539;-73
2024/03/23 11:10:29;;;;;;;3.80;2.80;;;;;;;16.38;45.68;95420.66;108426;1262;22532;-73
2024/03/23 11:13:26;;;;;;;4.80;2.90;;;;;;;16.42;45.22;95405.94;108351;1273;22578;-74
2024/03/23 11:16:16;;;;;;;5.30;2.90;;;;;;;16.27;44.88;95406.08;108332;1278;25419;-74
2024/03/23 11:18:45;;;;;;;;;;;;;;;16.33;45.85;95395.94;108467;1278;22510;-74
2024/03/23 11:21:55;;;;;;;3.70;2.90;;;;;;;16.30;44.89;95388.00;108389;1278;22549;-74
2024/03/23 11:24:26;;;;;;;3.20;2.50;;;;;;;16.23;45.32;95382.09;108381;1273;22534;-74
2024/03/23 11:27:00;;;;;;;4.50;2.60;;;;;;;16.19;44.74;95385.19;108378;1273;22545;-74
2024/03/23 11:29:31;;;;;;;4.80;3.10;;;;;;;16.22;45.65;95375.79;108395;1278;22531;-74
2024/03/23 11:32:04;;;;;;;6.40;3.20;;;;;;;16.32;45.46;95376.80;108344;1267;24427;-74
2024/03/23 11:34:38;;;;;;;5.80;3.40;;;;;;;16.38;45.29;95374.27;108321;1273;22542;-75
2024/03/23 11:37:09;;;;;;;4.50;3.00;;;;;;;16.37;44.59;95364.47;108329;1278;22534;-74
2024/03/23 11:39:40;;;;;;;5.40;3.30;;;;;;;16.30;44.67;95360.17;108301;1270;22542;-73
2024/03/23 11:42:21;;;;;;;4.00;2.70;;;;;;;16.33;44.85;95363.45;108272;1278;22562;-73
2024/03/23 11:44:52;;;;;;;4.40;2.90;;;;;;;16.36;44.81;95362.23;108352;1277;22534;-73
2024/03/23 11:47:23;;;;;;;5.10;3.00;;;;;;;16.43;44.58;95360.16;108437;1278;25365;-74